createdAt,value
2022-12-28T00:03:49.512Z,42.96
2022-12-28T00:08:55.698Z,42.72
2022-12-28T00:13:58.194Z,42.91
2022-12-28T00:19:04.057Z,42.80
2022-12-28T00:24:06.327Z,42.68
2022-12-28T00:29:09.102Z,42.40
2022-12-28T00:34:11.098Z,42.56
2022-12-28T00:39:13.214Z,42.63
2022-12-28T00:44:14.993Z,42.81
2022-12-28T00:49:16.778Z,42.59
2022-12-28T00:54:18.594Z,42.66
2022-12-28T00:59:20.478Z,42.64
2022-12-28T01:04:23.183Z,42.54
2022-12-28T01:09:24.877Z,42.72
2022-12-28T01:14:26.659Z,42.60
2022-12-28T01:19:28.492Z,42.57
2022-12-28T01:24:30.348Z,42.88
2022-12-28T01:29:32.799Z,42.62
2022-12-28T01:34:34.844Z,42.57
2022-12-28T01:39:36.592Z,42.49
2022-12-28T01:44:42.976Z,42.67
2022-12-28T01:50:03.515Z,42.74
2022-12-28T01:55:10.468Z,42.34
2022-12-28T02:00:14.869Z,42.43
2022-12-28T02:05:17.566Z,42.50
2022-12-28T02:10:42.762Z,42.33
2022-12-28T02:15:42.803Z,42.66
2022-12-28T02:21:22.161Z,42.56
2022-12-28T02:26:32.904Z,42.63
2022-12-28T02:31:46.976Z,42.46
2022-12-28T02:36:59.763Z,42.56
2022-12-28T02:42:02.073Z,42.58
2022-12-28T02:47:23.731Z,42.63
2022-12-28T02:52:55.191Z,42.72
2022-12-28T02:58:25.512Z,42.56
2022-12-28T03:03:42.697Z,42.67
2022-12-28T03:08:56.398Z,42.56
2022-12-28T03:14:11.800Z,42.55
2022-12-28T03:19:32.271Z,42.67
2022-12-28T03:24:56.034Z,42.37
2022-12-28T03:30:30.604Z,42.61
2022-12-28T03:35:43.406Z,42.58
2022-12-28T03:40:50.574Z,42.80
2022-12-28T03:45:55.855Z,42.52
2022-12-28T03:50:57.623Z,42.64
2022-12-28T03:56:08.168Z,42.76
2022-12-28T04:01:10.482Z,42.60
2022-12-28T04:06:17.046Z,42.62
2022-12-28T04:11:18.737Z,42.89
2022-12-28T04:16:21.460Z,42.51
2022-12-28T04:21:23.409Z,42.75
2022-12-28T04:26:25.247Z,42.78
2022-12-28T04:31:27.205Z,42.86
2022-12-28T04:36:29.100Z,42.79
2022-12-28T04:41:30.889Z,42.78
2022-12-28T04:46:33.057Z,42.90
2022-12-28T04:51:35.537Z,42.65
2022-12-28T04:56:37.409Z,43.06
2022-12-28T05:01:39.319Z,42.89
2022-12-28T05:06:41.248Z,43.14
2022-12-28T05:11:43.051Z,42.86
2022-12-28T05:16:44.885Z,42.63
2022-12-28T05:21:46.648Z,42.86
2022-12-28T05:26:48.514Z,42.87
2022-12-28T05:31:50.324Z,42.79
2022-12-28T05:36:52.404Z,43.09
2022-12-28T05:41:54.212Z,42.72
2022-12-28T05:46:56.538Z,43.07
2022-12-28T05:51:58.265Z,43.33
2022-12-28T05:56:59.988Z,43.10
2022-12-28T06:02:01.835Z,43.04
2022-12-28T06:07:03.791Z,42.78
2022-12-28T06:12:07.047Z,42.96
2022-12-28T06:17:08.785Z,43.32
2022-12-28T06:22:10.576Z,43.28
2022-12-28T06:27:12.566Z,43.17
2022-12-28T06:32:14.440Z,43.14
2022-12-28T06:37:16.553Z,43.14
2022-12-28T06:42:18.484Z,43.46
2022-12-28T06:47:20.480Z,42.97
2022-12-28T06:52:22.578Z,43.42
2022-12-28T06:57:24.424Z,43.15
2022-12-28T07:02:26.365Z,43.35
2022-12-28T07:07:28.266Z,43.07
2022-12-28T07:12:29.955Z,43.28
2022-12-28T07:17:31.604Z,43.32
2022-12-28T07:22:33.448Z,43.82
2022-12-28T07:27:36.600Z,43.65
2022-12-28T07:32:39.020Z,43.75
2022-12-28T07:37:41.085Z,44.10
2022-12-28T07:42:42.848Z,44.18
2022-12-28T07:47:44.736Z,44.09
2022-12-28T07:52:46.448Z,43.83
2022-12-28T07:57:48.152Z,43.84
2022-12-28T08:02:49.937Z,43.80
2022-12-28T08:07:52.541Z,44.61
2022-12-28T08:12:54.234Z,44.37
2022-12-28T08:18:03.130Z,44.33
2022-12-28T08:23:04.905Z,44.51
2022-12-28T08:28:06.729Z,44.32
2022-12-28T08:33:08.590Z,44.06
2022-12-28T08:38:10.421Z,45.88
2022-12-28T08:43:12.738Z,45.64
2022-12-28T08:48:15.241Z,46.05
2022-12-28T08:53:17.074Z,46.29
2022-12-28T08:58:19.089Z,46.94
2022-12-28T09:03:21.296Z,47.22
2022-12-28T09:08:23.104Z,47.25
2022-12-28T09:13:24.894Z,46.94
2022-12-28T09:18:27.085Z,46.92
2022-12-28T09:23:29.157Z,47.06
2022-12-28T09:28:30.865Z,47.33
2022-12-28T09:34:33.594Z,47.28
2022-12-28T09:39:20.026Z,47.01
2022-12-28T09:44:50.937Z,46.79
2022-12-28T09:49:56.232Z,45.99
2022-12-28T09:55:05.691Z,47.17
2022-12-28T10:00:14.897Z,47.10
2022-12-28T10:05:21.158Z,46.53
2022-12-28T10:10:24.163Z,46.50
2022-12-28T10:15:28.201Z,46.46
2022-12-28T10:20:32.477Z,46.42
2022-12-28T10:25:34.487Z,45.80
2022-12-28T10:30:49.567Z,45.89
2022-12-28T10:35:55.174Z,47.25
2022-12-28T10:41:03.006Z,46.82
2022-12-28T10:46:13.457Z,46.90
2022-12-28T10:51:21.764Z,46.81
2022-12-28T10:56:27.918Z,46.81
2022-12-28T11:01:30.568Z,46.69
2022-12-28T11:06:36.905Z,46.49
2022-12-28T11:11:39.451Z,46.62
2022-12-28T11:16:42.187Z,47.50
2022-12-28T11:21:44.670Z,47.34
2022-12-28T11:26:49.715Z,47.07
2022-12-28T11:32:00.151Z,47.29
2022-12-28T11:37:02.004Z,46.98
2022-12-28T11:42:37.913Z,46.83
2022-12-28T11:47:33.553Z,47.11
2022-12-28T11:52:45.761Z,47.00
2022-12-28T11:57:47.996Z,47.18
2022-12-28T12:02:56.696Z,46.85
2022-12-28T12:07:58.496Z,46.78
2022-12-28T12:13:01.826Z,46.62
2022-12-28T12:18:14.578Z,46.77
2022-12-28T12:23:32.912Z,46.80
2022-12-28T12:28:41.079Z,46.97
2022-12-28T12:33:47.890Z,46.93
2022-12-28T12:39:22.915Z,46.47
2022-12-28T12:44:36.291Z,46.47
2022-12-28T12:50:16.883Z,46.74
2022-12-28T12:55:27.707Z,46.72
2022-12-28T13:01:01.420Z,46.53
2022-12-28T13:06:05.147Z,46.39
2022-12-28T13:11:12.010Z,46.56
2022-12-28T13:16:21.167Z,46.13
2022-12-28T13:21:24.659Z,46.51
2022-12-28T13:26:29.910Z,46.61
2022-12-28T13:31:37.918Z,46.67
2022-12-28T13:36:56.867Z,46.41
2022-12-28T13:42:02.531Z,46.17
2022-12-28T13:47:15.039Z,46.03
2022-12-28T13:52:25.700Z,46.21
2022-12-28T13:57:50.087Z,46.31
2022-12-28T14:02:55.806Z,45.98
2022-12-28T14:07:59.472Z,46.07
2022-12-28T14:13:02.396Z,46.58
2022-12-28T14:18:05.432Z,46.41
2022-12-28T14:23:20.427Z,46.33
2022-12-28T14:28:24.328Z,46.17
2022-12-28T14:33:32.928Z,45.96
2022-12-28T14:38:40.203Z,45.84
2022-12-28T14:43:42.702Z,46.16
2022-12-28T14:48:45.793Z,45.63
2022-12-28T14:54:10.285Z,45.50
2022-12-28T14:59:27.395Z,46.08
2022-12-28T15:04:37.169Z,45.95
2022-12-28T15:09:38.857Z,46.32
2022-12-28T15:14:41.203Z,46.59
2022-12-28T15:19:43.764Z,46.03
2022-12-28T15:24:46.640Z,45.47
2022-12-28T15:30:04.862Z,45.60
2022-12-28T15:35:08.085Z,45.45
2022-12-28T15:40:10.535Z,47.78
2022-12-28T15:45:13.324Z,47.19
2022-12-28T15:50:15.289Z,46.88
2022-12-28T15:55:17.830Z,46.32
2022-12-28T16:00:20.736Z,46.49
2022-12-28T16:05:22.911Z,46.41
2022-12-28T16:10:24.865Z,46.16
2022-12-28T16:15:26.886Z,46.02
2022-12-28T16:20:29.869Z,45.70
2022-12-28T16:25:31.640Z,45.95
2022-12-28T16:30:48.535Z,46.19
2022-12-28T16:35:55.942Z,45.64
2022-12-28T16:41:01.008Z,45.08
2022-12-28T16:46:06.896Z,45.30
2022-12-28T16:51:09.654Z,45.09
2022-12-28T16:56:11.658Z,45.10
2022-12-28T17:01:13.670Z,46.82
2022-12-28T17:06:16.660Z,46.71
2022-12-28T17:11:19.358Z,49.35
2022-12-28T17:16:21.126Z,50.08
2022-12-28T17:21:22.980Z,49.55
2022-12-28T17:26:25.487Z,48.90
2022-12-28T17:31:27.830Z,47.51
2022-12-28T17:36:30.169Z,46.65
2022-12-28T17:41:31.924Z,46.10
2022-12-28T17:46:40.837Z,46.17
2022-12-28T17:51:43.690Z,46.14
2022-12-28T17:56:45.889Z,46.05
2022-12-28T18:01:48.028Z,45.42
2022-12-28T18:06:49.856Z,45.29
2022-12-28T18:11:51.723Z,45.42
2022-12-28T18:16:54.825Z,45.24
2022-12-28T18:21:56.689Z,45.53
2022-12-28T18:26:58.428Z,45.40
2022-12-28T18:32:00.165Z,45.20
2022-12-28T18:37:02.074Z,45.01
2022-12-28T18:42:04.390Z,45.18
2022-12-28T18:47:06.237Z,46.56
2022-12-28T18:52:08.234Z,45.70
2022-12-28T18:57:10.501Z,45.61
2022-12-28T19:02:18.986Z,45.38
2022-12-28T19:07:21.717Z,45.27
2022-12-28T19:12:23.559Z,45.47
2022-12-28T19:17:25.428Z,45.61
2022-12-28T19:22:27.247Z,45.23
2022-12-28T19:27:29.203Z,44.90
2022-12-28T19:32:31.089Z,45.23
2022-12-28T19:37:34.280Z,45.09
2022-12-28T19:42:36.031Z,45.16
2022-12-28T19:47:38.015Z,44.93
2022-12-28T19:52:40.124Z,45.08
2022-12-28T19:57:42.436Z,44.99
2022-12-28T20:02:44.898Z,44.69
2022-12-28T20:07:46.814Z,45.18
2022-12-28T20:12:48.959Z,44.89
2022-12-28T20:17:50.899Z,45.03
2022-12-28T20:22:52.853Z,45.04
2022-12-28T20:27:54.824Z,45.11
2022-12-28T20:32:56.749Z,45.20
2022-12-28T20:37:58.436Z,44.91
2022-12-28T20:43:19.100Z,45.22
2022-12-28T20:48:21.042Z,45.23
2022-12-28T20:53:22.884Z,44.97
2022-12-28T20:58:24.641Z,44.52
2022-12-28T21:03:26.644Z,44.80
2022-12-28T21:08:31.016Z,44.61
2022-12-28T21:13:33.212Z,44.33
2022-12-28T21:18:35.805Z,45.09
2022-12-28T21:23:37.701Z,44.79
2022-12-28T21:28:39.552Z,44.95
2022-12-28T21:33:41.913Z,45.09
2022-12-28T21:38:46.178Z,44.58
2022-12-28T21:43:49.243Z,44.88
2022-12-28T21:48:50.925Z,44.94
2022-12-28T21:53:52.637Z,44.74
2022-12-28T21:58:54.954Z,44.73
2022-12-28T22:04:15.600Z,44.89
2022-12-28T22:09:38.315Z,44.95
2022-12-28T22:14:40.089Z,45.14
2022-12-28T22:19:41.977Z,44.90
2022-12-28T22:24:43.758Z,44.74
2022-12-28T22:29:45.700Z,45.02
2022-12-28T22:34:47.471Z,45.06
2022-12-28T22:39:49.389Z,45.06
2022-12-28T22:44:51.237Z,45.12
2022-12-28T22:49:53.235Z,45.17
2022-12-28T22:54:55.003Z,45.49
2022-12-28T22:59:57.074Z,45.15
2022-12-28T23:05:00.248Z,45.05
2022-12-28T23:10:02.296Z,45.61
2022-12-28T23:15:19.273Z,45.12
2022-12-28T23:20:39.806Z,45.55
2022-12-28T23:26:00.509Z,45.32
2022-12-28T23:31:02.316Z,45.42
2022-12-28T23:36:05.355Z,45.49
2022-12-28T23:41:26.187Z,45.42
2022-12-28T23:46:28.144Z,45.13
2022-12-28T23:51:30.026Z,45.05
2022-12-28T23:56:31.837Z,45.35
